createdAt,value
2018-02-09T00:00:20.433Z,-0.20
2018-02-09T00:02:47.966Z,-0.10
2018-02-09T00:05:15.485Z,0.10
2018-02-09T00:07:42.885Z,0.10
2018-02-09T00:10:10.446Z,0.20
2018-02-09T00:12:37.866Z,0.20
2018-02-09T00:15:05.185Z,0.20
2018-02-09T00:17:33.405Z,0.30
2018-02-09T00:20:00.925Z,0.20
2018-02-09T00:22:34.145Z,0.30
2018-02-09T00:25:02.585Z,0.20
2018-02-09T00:27:30.128Z,0.10
2018-02-09T00:29:57.505Z,0.10
2018-02-09T00:32:26.205Z,0.00
2018-02-09T00:34:53.725Z,0.00
2018-02-09T00:37:21.108Z,0.00
2018-02-09T00:39:48.446Z,0.00
2018-02-09T00:42:15.846Z,0.00
2018-02-09T00:44:43.286Z,0.00
2018-02-09T00:47:10.846Z,0.10
2018-02-09T00:49:38.208Z,0.00
2018-02-09T00:52:05.645Z,0.00
2018-02-09T00:54:32.925Z,0.00
2018-02-09T00:57:00.305Z,0.00
2018-02-09T00:59:27.786Z,0.00
2018-02-09T01:01:55.789Z,0.00
2018-02-09T01:04:23.267Z,0.00
2018-02-09T01:06:51.486Z,0.00
2018-02-09T01:09:19.006Z,0.00
2018-02-09T01:11:46.846Z,0.00
2018-02-09T01:14:15.006Z,0.00
2018-02-09T01:16:42.786Z,0.00
2018-02-09T01:19:10.689Z,-0.10
2018-02-09T01:21:38.066Z,-0.10
2018-02-09T01:24:05.546Z,-0.10
2018-02-09T01:26:33.166Z,-0.10
2018-02-09T01:29:00.546Z,-0.20
2018-02-09T01:31:28.174Z,-0.20
2018-02-09T01:33:55.486Z,-0.30
2018-02-09T01:36:24.008Z,-0.20
2018-02-09T01:38:51.866Z,-0.30
2018-02-09T01:41:19.966Z,-0.20
2018-02-09T01:43:47.346Z,-0.20
2018-02-09T01:46:14.686Z,-0.20
2018-02-09T01:48:42.046Z,-0.20
2018-02-09T01:51:09.567Z,-0.20
2018-02-09T01:53:36.926Z,-0.10
2018-02-09T01:56:04.326Z,-0.10
2018-02-09T01:58:31.886Z,-0.10
2018-02-09T02:00:59.327Z,-0.10
2018-02-09T02:03:26.706Z,0.00
2018-02-09T02:05:54.626Z,0.00
2018-02-09T02:08:21.966Z,0.10
2018-02-09T02:10:49.385Z,0.10
2018-02-09T02:13:16.687Z,0.10
2018-02-09T02:15:44.289Z,0.10
2018-02-09T02:18:12.126Z,0.10
2018-02-09T02:20:39.966Z,0.20
2018-02-09T02:23:07.852Z,0.20
2018-02-09T02:25:35.268Z,0.30
2018-02-09T02:28:02.846Z,0.30
2018-02-09T02:30:30.368Z,0.30
2018-02-09T02:32:59.512Z,0.30
2018-02-09T02:35:26.966Z,0.20
2018-02-09T02:37:54.846Z,0.10
2018-02-09T02:40:22.686Z,0.00
2018-02-09T02:42:50.166Z,0.10
2018-02-09T02:45:17.506Z,0.10
2018-02-09T02:47:44.927Z,0.20
2018-02-09T02:50:12.446Z,0.20
2018-02-09T02:52:39.967Z,0.10
2018-02-09T02:55:07.287Z,0.00
2018-02-09T02:57:35.007Z,0.00
2018-02-09T03:00:02.827Z,0.00
2018-02-09T03:02:30.431Z,0.00
2018-02-09T03:04:57.808Z,-0.10
2018-02-09T03:07:25.467Z,0.00
2018-02-09T03:09:53.267Z,0.00
2018-02-09T03:12:20.927Z,0.10
2018-02-09T03:14:48.287Z,0.20
2018-02-09T03:17:15.807Z,0.10
2018-02-09T03:19:44.307Z,-0.10
2018-02-09T03:22:12.767Z,-0.10
2018-02-09T03:24:40.088Z,-0.10
2018-02-09T03:27:07.847Z,-0.10
2018-02-09T03:29:35.209Z,-0.30
2018-02-09T03:32:03.427Z,-0.30
2018-02-09T03:34:31.909Z,-0.30
2018-02-09T03:36:59.167Z,-0.30
2018-02-09T03:39:26.609Z,-0.20
2018-02-09T03:41:54.107Z,-0.10
2018-02-09T03:46:52.987Z,0.10
2018-02-09T03:49:20.408Z,0.20
2018-02-09T03:51:48.489Z,0.30
2018-02-09T03:54:16.607Z,0.30
2018-02-09T03:56:44.007Z,0.30
2018-02-09T03:59:11.367Z,0.30
2018-02-09T04:01:38.847Z,0.20
2018-02-09T04:04:06.247Z,0.10
2018-02-09T04:06:33.729Z,0.10
2018-02-09T04:09:01.167Z,0.00
2018-02-09T04:11:29.387Z,0.00
2018-02-09T04:13:57.089Z,-0.10
2018-02-09T04:16:24.867Z,0.00
2018-02-09T04:18:52.267Z,-0.10
2018-02-09T04:21:20.609Z,-0.10
2018-02-09T04:23:48.448Z,-0.10
2018-02-09T04:28:47.897Z,0.00
2018-02-09T04:31:15.208Z,0.00
2018-02-09T04:33:43.350Z,0.00
2018-02-09T04:36:11.107Z,-0.10
2018-02-09T04:38:38.567Z,0.00
2018-02-09T04:41:06.067Z,0.00
2018-02-09T04:43:34.307Z,0.00
2018-02-09T04:46:02.507Z,0.00
2018-02-09T04:48:30.047Z,0.00
2018-02-09T04:50:57.847Z,0.10
2018-02-09T04:53:25.247Z,0.00
2018-02-09T04:55:52.967Z,0.00
2018-02-09T04:58:20.487Z,0.00
2018-02-09T05:00:47.847Z,0.00
2018-02-09T05:03:16.127Z,0.00
2018-02-09T05:05:43.687Z,0.00
2018-02-09T05:08:11.012Z,0.00
2018-02-09T05:10:38.430Z,0.00
2018-02-09T05:13:05.648Z,0.00
2018-02-09T05:15:33.087Z,0.10
2018-02-09T05:18:00.427Z,0.10
2018-02-09T05:20:27.807Z,0.10
2018-02-09T05:22:55.247Z,0.10
2018-02-09T05:25:22.814Z,0.10
2018-02-09T05:27:50.089Z,0.10
2018-02-09T05:30:17.707Z,0.10
2018-02-09T05:32:45.087Z,0.20
2018-02-09T05:35:13.250Z,0.20
2018-02-09T05:37:40.747Z,0.20
2018-02-09T05:40:08.206Z,0.20
2018-02-09T05:42:35.851Z,0.20
2018-02-09T05:45:03.209Z,0.10
2018-02-09T05:47:30.708Z,0.10
2018-02-09T05:49:58.047Z,0.10
2018-02-09T05:52:25.568Z,0.10
2018-02-09T05:54:53.327Z,0.10
2018-02-09T05:57:20.727Z,0.10
2018-02-09T05:59:48.307Z,0.20
2018-02-09T06:02:15.982Z,0.20
2018-02-09T06:04:43.527Z,0.30
2018-02-09T06:07:11.467Z,0.40
2018-02-09T06:09:39.047Z,0.40
2018-02-09T06:12:06.855Z,0.40
2018-02-09T06:14:34.333Z,0.40
2018-02-09T06:17:01.733Z,0.30
2018-02-09T06:19:29.113Z,0.40
2018-02-09T06:21:56.770Z,0.40
2018-02-09T06:24:24.170Z,0.40
2018-02-09T06:26:51.490Z,0.50
2018-02-09T06:29:18.809Z,0.50
2018-02-09T06:31:46.695Z,0.50
2018-02-09T06:34:14.090Z,0.50
2018-02-09T06:39:13.250Z,0.50
2018-02-09T06:41:40.538Z,0.50
2018-02-09T06:44:08.650Z,0.50
2018-02-09T06:46:36.085Z,0.50
2018-02-09T06:49:03.426Z,0.50
2018-02-09T06:51:30.826Z,0.50
2018-02-09T06:53:58.307Z,0.50
2018-02-09T06:56:26.485Z,0.50
2018-02-09T06:58:54.686Z,0.50
2018-02-09T07:01:22.211Z,0.40
2018-02-09T07:03:49.732Z,0.40
2018-02-09T07:06:17.250Z,0.50
2018-02-09T07:08:44.769Z,0.50
2018-02-09T07:11:12.290Z,0.50
2018-02-09T07:13:39.710Z,0.50
2018-02-09T07:16:07.010Z,0.40
2018-02-09T07:18:34.348Z,0.40
2018-02-09T07:21:01.730Z,0.40
2018-02-09T07:23:29.248Z,0.40
2018-02-09T07:25:57.031Z,0.40
2018-02-09T07:28:24.609Z,0.40
2018-02-09T07:30:52.029Z,0.40
2018-02-09T07:33:19.367Z,0.40
2018-02-09T07:35:46.816Z,0.40
2018-02-09T07:38:14.630Z,0.50
2018-02-09T07:40:42.849Z,0.50
2018-02-09T07:43:10.797Z,0.50
2018-02-09T07:45:38.365Z,0.50
2018-02-09T07:48:06.045Z,0.50
2018-02-09T07:50:33.445Z,0.60
2018-02-09T07:53:00.916Z,0.60
2018-02-09T07:55:28.287Z,0.50
2018-02-09T07:57:56.028Z,0.50
2018-02-09T08:00:23.527Z,0.50
2018-02-09T08:02:50.850Z,0.60
2018-02-09T08:05:18.123Z,0.60
2018-02-09T08:07:45.769Z,0.60
2018-02-09T08:10:13.280Z,0.60
2018-02-09T08:12:40.729Z,0.60
2018-02-09T08:15:08.628Z,0.60
2018-02-09T08:17:36.026Z,0.60
2018-02-09T08:20:03.369Z,0.60
2018-02-09T08:22:31.646Z,0.70
2018-02-09T08:24:59.176Z,0.70
2018-02-09T08:27:26.646Z,0.70
2018-02-09T08:29:54.046Z,0.70
2018-02-09T08:32:21.406Z,0.60
2018-02-09T08:34:48.970Z,0.60
2018-02-09T08:37:16.906Z,0.60
2018-02-09T08:39:44.591Z,0.60
2018-02-09T08:42:12.126Z,0.60
2018-02-09T08:44:39.646Z,0.60
2018-02-09T08:47:07.087Z,0.60
2018-02-09T08:49:34.428Z,0.70
2018-02-09T08:52:02.187Z,0.70
2018-02-09T08:54:29.528Z,0.80
2018-02-09T08:56:56.926Z,0.80
2018-02-09T08:59:24.661Z,0.80
2018-02-09T09:01:52.109Z,0.80
2018-02-09T09:04:19.491Z,0.80
2018-02-09T09:06:47.290Z,0.80
2018-02-09T09:09:14.970Z,0.80
2018-02-09T09:11:43.009Z,0.80
2018-02-09T09:14:11.189Z,0.80
2018-02-09T09:16:38.550Z,0.80
2018-02-09T09:19:05.886Z,0.70
2018-02-09T09:21:33.326Z,0.80
2018-02-09T09:24:00.686Z,0.80
2018-02-09T09:26:28.249Z,0.80
2018-02-09T09:28:55.828Z,0.90
2018-02-09T09:31:23.167Z,0.90
2018-02-09T09:33:50.508Z,1.00
2018-02-09T09:36:18.708Z,1.10
2018-02-09T09:38:46.367Z,1.10
2018-02-09T09:41:14.146Z,1.10
2018-02-09T09:43:41.489Z,1.20
2018-02-09T09:46:08.886Z,1.30
2018-02-09T09:48:36.326Z,1.30
2018-02-09T09:51:04.587Z,1.40
2018-02-09T09:53:32.130Z,1.30
2018-02-09T09:55:59.647Z,1.30
2018-02-09T09:58:27.767Z,1.40
2018-02-09T10:00:55.150Z,1.40
2018-02-09T10:03:22.848Z,1.40
2018-02-09T10:05:50.749Z,1.30
2018-02-09T10:08:18.470Z,1.30
2018-02-09T10:10:45.888Z,1.30
2018-02-09T10:13:13.287Z,1.30
2018-02-09T10:15:40.927Z,1.30
2018-02-09T10:18:08.428Z,1.30
2018-02-09T10:20:35.788Z,1.30
2018-02-09T10:23:03.169Z,1.30
2018-02-09T10:25:30.568Z,1.20
2018-02-09T10:28:00.791Z,1.20
2018-02-09T10:30:28.130Z,1.20
2018-02-09T10:32:55.848Z,1.20
2018-02-09T10:35:24.050Z,1.20
2018-02-09T10:37:51.481Z,1.10
2018-02-09T10:40:18.906Z,1.20
2018-02-09T10:42:46.650Z,1.10
2018-02-09T10:45:13.945Z,1.10
2018-02-09T10:47:41.305Z,1.10
2018-02-09T10:50:09.725Z,1.20
2018-02-09T10:52:37.090Z,1.20
2018-02-09T10:55:04.357Z,1.20
2018-02-09T10:57:32.087Z,1.30
2018-02-09T10:59:59.576Z,1.20
2018-02-09T11:02:26.850Z,1.20
2018-02-09T11:04:54.270Z,1.30
2018-02-09T11:07:21.570Z,1.30
2018-02-09T11:09:49.089Z,1.30
2018-02-09T11:12:16.489Z,1.30
2018-02-09T11:14:44.169Z,1.30
2018-02-09T11:17:11.668Z,1.30
2018-02-09T11:19:39.069Z,1.30
2018-02-09T11:22:06.348Z,1.40
2018-02-09T11:24:33.628Z,1.40
2018-02-09T11:27:01.328Z,1.40
2018-02-09T11:29:28.729Z,1.50
2018-02-09T11:31:56.448Z,1.50
2018-02-09T11:34:23.848Z,1.50
2018-02-09T11:36:51.249Z,1.40
2018-02-09T11:39:18.688Z,1.40
2018-02-09T11:41:46.148Z,1.30
2018-02-09T11:44:14.369Z,1.30
2018-02-09T11:46:41.909Z,1.30
2018-02-09T11:49:10.336Z,1.30
2018-02-09T11:51:37.708Z,1.20
2018-02-09T11:54:05.010Z,1.30
2018-02-09T11:56:32.387Z,1.30
2018-02-09T11:59:00.246Z,1.40
2018-02-09T12:01:28.346Z,1.40
2018-02-09T12:03:56.086Z,1.30
2018-02-09T12:06:23.467Z,1.30
2018-02-09T12:08:50.947Z,1.10
2018-02-09T12:11:19.006Z,1.10
2018-02-09T12:13:46.448Z,1.10
2018-02-09T12:16:13.847Z,1.10
2018-02-09T12:18:41.286Z,1.10
2018-02-09T12:21:08.767Z,1.20
2018-02-09T12:23:36.328Z,1.30
2018-02-09T12:26:03.787Z,1.40
2018-02-09T12:28:31.447Z,1.40
2018-02-09T12:30:59.167Z,1.40
2018-02-09T12:33:28.066Z,1.50
2018-02-09T12:35:56.266Z,1.50
2018-02-09T12:38:23.646Z,1.50
2018-02-09T12:40:51.168Z,1.50
2018-02-09T12:43:18.742Z,1.50
2018-02-09T12:45:46.461Z,1.40
2018-02-09T12:48:13.846Z,1.40
2018-02-09T12:50:41.291Z,1.40
2018-02-09T12:53:08.886Z,1.30
2018-02-09T12:55:36.646Z,1.30
2018-02-09T12:58:04.126Z,1.30
2018-02-09T13:00:31.650Z,1.30
2018-02-09T13:02:59.909Z,1.30
2018-02-09T13:05:27.807Z,1.40
2018-02-09T13:07:55.389Z,1.30
2018-02-09T13:10:22.827Z,1.20
2018-02-09T13:12:56.027Z,1.20
2018-02-09T13:15:24.147Z,1.20
2018-02-09T13:17:51.646Z,1.10
2018-02-09T13:20:19.273Z,1.10
2018-02-09T13:22:52.574Z,1.10
2018-02-09T13:25:20.294Z,1.10
2018-02-09T13:27:47.753Z,1.10
2018-02-09T13:30:15.493Z,1.10
2018-02-09T13:32:48.618Z,1.10
2018-02-09T13:35:16.075Z,1.10
2018-02-09T13:37:43.392Z,1.10
2018-02-09T13:40:11.173Z,1.10
2018-02-09T13:42:38.453Z,1.10
2018-02-09T13:45:05.708Z,1.20
2018-02-09T13:47:33.108Z,1.20
2018-02-09T13:50:00.809Z,1.20
2018-02-09T13:52:28.128Z,1.20
2018-02-09T13:54:55.967Z,1.20
2018-02-09T13:57:23.308Z,1.20
2018-02-09T13:59:50.688Z,1.20
2018-02-09T14:02:18.215Z,1.30
2018-02-09T14:04:45.943Z,1.30
2018-02-09T14:07:14.109Z,1.30
2018-02-09T14:09:41.465Z,1.30
2018-02-09T14:12:08.889Z,1.30
2018-02-09T14:14:36.289Z,1.30
2018-02-09T14:17:03.692Z,1.30
2018-02-09T14:19:31.486Z,1.30
2018-02-09T14:21:58.846Z,1.30
2018-02-09T14:24:26.208Z,1.30
2018-02-09T14:26:53.727Z,1.30
2018-02-09T14:29:21.126Z,1.30
2018-02-09T14:31:48.466Z,1.30
2018-02-09T14:34:16.167Z,1.30
2018-02-09T14:36:43.526Z,1.30
2018-02-09T14:39:11.266Z,1.30
2018-02-09T14:41:38.867Z,1.20
2018-02-09T14:46:37.726Z,1.20
2018-02-09T14:49:05.619Z,1.20
2018-02-09T14:51:33.366Z,1.20
2018-02-09T14:54:00.726Z,1.20
2018-02-09T14:56:29.892Z,1.20
2018-02-09T14:58:57.286Z,1.20
2018-02-09T15:01:25.528Z,1.20
2018-02-09T15:03:53.927Z,1.20
2018-02-09T15:06:21.406Z,1.20
2018-02-09T15:08:49.246Z,1.20
2018-02-09T15:11:17.486Z,1.10
2018-02-09T15:13:45.535Z,1.10
2018-02-09T15:16:12.906Z,1.10
2018-02-09T15:18:41.229Z,1.00
2018-02-09T15:21:08.511Z,1.00
2018-02-09T15:23:36.267Z,1.00
2018-02-09T15:26:03.767Z,1.00
2018-02-09T15:28:31.509Z,1.00
2018-02-09T15:30:58.848Z,1.00
2018-02-09T15:33:26.726Z,1.00
2018-02-09T15:35:54.847Z,1.10
2018-02-09T15:38:23.326Z,1.10
2018-02-09T15:40:51.272Z,1.10
2018-02-09T15:43:18.586Z,1.10
2018-02-09T15:45:45.926Z,1.10
2018-02-09T15:48:13.407Z,1.10
2018-02-09T15:50:41.486Z,1.00
2018-02-09T15:53:08.827Z,1.00
2018-02-09T15:55:36.606Z,1.00
2018-02-09T15:58:04.131Z,0.90
2018-02-09T16:00:31.526Z,0.90
2018-02-09T16:02:58.967Z,0.90
2018-02-09T16:07:57.887Z,0.90
2018-02-09T16:10:25.367Z,0.90
2018-02-09T16:12:53.107Z,0.80
2018-02-09T16:15:20.433Z,0.80
2018-02-09T16:17:47.835Z,0.80
2018-02-09T16:20:15.975Z,0.80
2018-02-09T16:22:43.386Z,0.80
2018-02-09T16:25:10.927Z,0.80
2018-02-09T16:27:38.247Z,0.90
2018-02-09T16:30:05.612Z,0.90
2018-02-09T16:32:33.327Z,0.90
2018-02-09T16:35:00.769Z,0.90
2018-02-09T16:37:28.256Z,0.90
2018-02-09T16:39:56.770Z,0.90
2018-02-09T16:42:24.281Z,0.90
2018-02-09T16:44:51.608Z,0.90
2018-02-09T16:47:18.906Z,0.90
2018-02-09T16:49:46.527Z,0.90
2018-02-09T16:52:13.930Z,0.90
2018-02-09T16:54:42.046Z,0.80
2018-02-09T16:57:09.547Z,0.80
2018-02-09T16:59:36.846Z,0.80
2018-02-09T17:02:04.471Z,0.80
2018-02-09T17:04:31.970Z,0.80
2018-02-09T17:06:59.331Z,0.80
2018-02-09T17:09:26.672Z,0.80
2018-02-09T17:11:54.370Z,0.80
2018-02-09T17:14:21.726Z,0.80
2018-02-09T17:16:49.250Z,0.80
2018-02-09T17:19:16.674Z,0.80
2018-02-09T17:21:43.969Z,0.80
2018-02-09T17:24:11.488Z,0.80
2018-02-09T17:26:38.926Z,0.80
2018-02-09T17:29:06.526Z,0.80
2018-02-09T17:31:33.946Z,0.80
2018-02-09T17:34:02.014Z,0.80
2018-02-09T17:36:29.350Z,0.80
2018-02-09T17:38:56.753Z,0.80
2018-02-09T17:41:24.251Z,0.80
2018-02-09T17:43:51.608Z,0.80
2018-02-09T17:46:18.948Z,0.80
2018-02-09T17:48:46.998Z,0.90
2018-02-09T17:51:14.308Z,0.80
2018-02-09T17:53:41.791Z,0.90
2018-02-09T17:56:09.105Z,0.90
2018-02-09T17:58:36.448Z,0.90
2018-02-09T18:01:03.845Z,0.90
2018-02-09T18:03:31.145Z,0.90
2018-02-09T18:05:58.525Z,0.90
2018-02-09T18:08:25.916Z,0.90
2018-02-09T18:10:53.225Z,0.90
2018-02-09T18:13:20.509Z,0.90
2018-02-09T18:15:47.888Z,0.90
2018-02-09T18:18:15.645Z,0.90
2018-02-09T18:20:43.012Z,0.90
2018-02-09T18:23:11.157Z,0.80
2018-02-09T18:25:38.577Z,0.80
2018-02-09T18:28:05.990Z,0.80
2018-02-09T18:30:33.570Z,0.80
2018-02-09T18:33:00.851Z,0.70
2018-02-09T18:35:28.310Z,0.80
2018-02-09T18:37:55.650Z,0.80
2018-02-09T18:40:22.990Z,0.80
2018-02-09T18:45:21.891Z,0.80
2018-02-09T18:47:50.032Z,0.80
2018-02-09T18:50:17.310Z,0.80
2018-02-09T18:52:44.973Z,0.80
2018-02-09T18:55:12.290Z,0.80
2018-02-09T18:57:39.610Z,0.80
2018-02-09T19:00:07.171Z,0.80
2018-02-09T19:02:34.690Z,0.80
2018-02-09T19:05:02.032Z,0.80
2018-02-09T19:07:30.531Z,0.80
2018-02-09T19:09:58.050Z,0.80
2018-02-09T19:12:25.410Z,0.80
2018-02-09T19:14:52.690Z,0.80
2018-02-09T19:17:19.970Z,0.80
2018-02-09T19:19:47.369Z,0.70
2018-02-09T19:22:16.171Z,0.60
2018-02-09T19:24:43.629Z,0.60
2018-02-09T19:27:11.330Z,0.70
2018-02-09T19:29:39.170Z,0.70
2018-02-09T19:32:06.650Z,0.70
2018-02-09T19:34:34.010Z,0.70
2018-02-09T19:37:02.089Z,0.70
2018-02-09T19:39:29.796Z,0.70
2018-02-09T19:41:57.110Z,0.70
2018-02-09T19:44:24.489Z,0.70
2018-02-09T19:46:51.749Z,0.70
2018-02-09T19:49:20.130Z,0.80
2018-02-09T19:51:48.170Z,0.70
2018-02-09T19:54:15.669Z,0.80
2018-02-09T19:56:43.009Z,0.80
2018-02-09T19:59:10.390Z,0.80
2018-02-09T20:01:37.892Z,0.80
2018-02-09T20:04:05.896Z,0.80
2018-02-09T20:06:33.550Z,0.80
2018-02-09T20:09:00.911Z,0.80
2018-02-09T20:11:28.291Z,0.80
2018-02-09T20:13:55.708Z,0.80
2018-02-09T20:16:23.329Z,0.80
2018-02-09T20:18:50.726Z,0.80
2018-02-09T20:21:18.768Z,0.80
2018-02-09T20:23:46.446Z,0.80
2018-02-09T20:26:14.090Z,0.80
2018-02-09T20:28:41.808Z,0.80
2018-02-09T20:31:10.072Z,0.80
2018-02-09T20:33:37.606Z,0.80
2018-02-09T20:36:05.087Z,0.80
2018-02-09T20:38:32.386Z,0.80
2018-02-09T20:40:59.847Z,0.70
2018-02-09T20:43:27.991Z,0.80
2018-02-09T20:45:55.450Z,0.70
2018-02-09T20:48:22.941Z,0.80
2018-02-09T20:50:51.490Z,0.80
2018-02-09T20:53:19.991Z,0.80
2018-02-09T20:55:48.191Z,0.80
2018-02-09T20:58:16.510Z,0.80
2018-02-09T21:00:44.090Z,0.80
2018-02-09T21:03:11.510Z,0.80
2018-02-09T21:05:39.710Z,0.80
2018-02-09T21:08:07.031Z,0.80
2018-02-09T21:10:34.450Z,0.80
2018-02-09T21:13:01.898Z,0.80
2018-02-09T21:15:29.410Z,0.80
2018-02-09T21:17:56.834Z,0.80
2018-02-09T21:20:24.852Z,0.90
2018-02-09T21:22:52.332Z,0.90
2018-02-09T21:25:19.650Z,0.90
2018-02-09T21:27:47.050Z,0.90
2018-02-09T21:30:14.556Z,0.80
2018-02-09T21:32:41.930Z,0.80
2018-02-09T21:35:09.371Z,0.90
2018-02-09T21:37:36.730Z,0.90
2018-02-09T21:40:04.515Z,0.90
2018-02-09T21:42:31.970Z,0.90
2018-02-09T21:44:59.810Z,0.90
2018-02-09T21:47:27.551Z,0.90
2018-02-09T21:49:55.031Z,0.90
2018-02-09T21:52:22.430Z,0.90
2018-02-09T21:54:49.752Z,0.90
2018-02-09T21:57:17.090Z,0.90
2018-02-09T21:59:45.417Z,0.90
2018-02-09T22:02:12.808Z,0.90
2018-02-09T22:04:40.209Z,0.90
2018-02-09T22:07:09.728Z,0.90
2018-02-09T22:09:37.027Z,0.90
2018-02-09T22:12:04.705Z,0.90
2018-02-09T22:14:31.965Z,0.90
2018-02-09T22:16:59.724Z,0.90
2018-02-09T22:19:27.130Z,1.00
2018-02-09T22:21:54.587Z,1.00
2018-02-09T22:24:21.947Z,0.90
2018-02-09T22:26:49.405Z,0.90
2018-02-09T22:29:16.725Z,0.90
2018-02-09T22:31:44.447Z,0.90
2018-02-09T22:34:11.813Z,0.90
2018-02-09T22:36:39.467Z,0.90
2018-02-09T22:39:06.787Z,0.90
2018-02-09T22:41:34.416Z,0.90
2018-02-09T22:44:01.817Z,0.90
2018-02-09T22:46:29.210Z,0.90
2018-02-09T22:48:56.631Z,0.90
2018-02-09T22:51:24.086Z,0.90
2018-02-09T22:53:51.906Z,0.90
2018-02-09T22:56:19.247Z,0.90
2018-02-09T22:58:46.686Z,0.90
2018-02-09T23:01:16.947Z,0.90
2018-02-09T23:03:44.452Z,0.90
2018-02-09T23:06:11.896Z,0.80
2018-02-09T23:08:39.352Z,0.80
2018-02-09T23:11:06.689Z,0.80
2018-02-09T23:13:35.391Z,0.70
2018-02-09T23:16:03.489Z,0.70
2018-02-09T23:18:30.928Z,0.70
2018-02-09T23:20:58.249Z,0.80
2018-02-09T23:23:25.653Z,0.80
2018-02-09T23:25:53.569Z,0.80
2018-02-09T23:28:21.236Z,0.80
2018-02-09T23:30:48.588Z,0.80
2018-02-09T23:33:16.030Z,0.80
2018-02-09T23:35:43.568Z,0.80
2018-02-09T23:38:11.489Z,0.80
2018-02-09T23:40:39.268Z,0.80
2018-02-09T23:43:06.657Z,0.80
2018-02-09T23:45:34.368Z,0.80
2018-02-09T23:48:01.907Z,0.80
2018-02-09T23:50:29.653Z,0.80
2018-02-09T23:52:56.931Z,0.80
2018-02-09T23:55:24.548Z,0.70
2018-02-09T23:57:51.947Z,0.80
